createdAt,value
2022-11-06T00:00:36.710Z,9.10
2022-11-06T00:03:05.468Z,9.10
2022-11-06T00:05:51.544Z,9.00
2022-11-06T00:08:30.309Z,8.80
2022-11-06T00:10:59.008Z,8.80
2022-11-06T00:13:27.472Z,8.70
2022-11-06T00:15:55.727Z,8.60
2022-11-06T00:18:27.571Z,8.40
2022-11-06T00:20:55.758Z,8.40
2022-11-06T00:23:23.989Z,8.30
2022-11-06T00:25:56.547Z,8.30
2022-11-06T00:28:24.792Z,8.20
2022-11-06T00:30:53.121Z,8.20
2022-11-06T00:39:12.372Z,8.10
2022-11-06T00:41:42.304Z,8.10
2022-11-06T00:44:11.340Z,8.00
2022-11-06T00:46:39.507Z,8.00
2022-11-06T00:49:07.763Z,8.00
2022-11-06T00:51:39.316Z,8.00
2022-11-06T00:54:09.068Z,8.00
2022-11-06T00:56:37.611Z,7.90
2022-11-06T00:59:09.417Z,7.90
2022-11-06T01:01:40.525Z,7.80
2022-11-06T01:04:11.983Z,7.80
2022-11-06T01:06:41.968Z,7.90
2022-11-06T01:09:12.454Z,7.80
2022-11-06T01:12:11.720Z,7.80
2022-11-06T01:14:33.799Z,7.80
2022-11-06T01:17:02.004Z,7.70
2022-11-06T01:19:30.048Z,7.60
2022-11-06T01:21:58.274Z,7.60
2022-11-06T01:24:28.246Z,7.60
2022-11-06T01:29:46.372Z,7.70
2022-11-06T01:32:14.844Z,7.70
2022-11-06T01:34:42.912Z,7.80
2022-11-06T01:37:14.578Z,7.70
2022-11-06T01:39:43.279Z,7.70
2022-11-06T01:42:12.906Z,7.70
2022-11-06T01:45:18.399Z,7.70
2022-11-06T01:47:47.859Z,7.80
2022-11-06T01:50:17.212Z,7.70
2022-11-06T01:52:47.227Z,7.70
2022-11-06T01:55:20.685Z,7.70
2022-11-06T01:57:49.823Z,7.60
2022-11-06T02:00:20.133Z,7.70
2022-11-06T02:02:51.239Z,7.80
2022-11-06T02:05:19.846Z,7.90
2022-11-06T02:07:49.064Z,7.90
2022-11-06T02:10:17.628Z,7.90
2022-11-06T02:13:04.664Z,7.90
2022-11-06T02:15:41.542Z,7.90
2022-11-06T02:18:22.893Z,7.90
2022-11-06T02:21:16.887Z,8.00
2022-11-06T02:23:58.680Z,8.00
2022-11-06T02:26:48.403Z,8.00
2022-11-06T02:29:20.624Z,7.90
2022-11-06T02:31:51.167Z,8.00
2022-11-06T02:34:21.463Z,8.00
2022-11-06T02:36:54.638Z,8.00
2022-11-06T02:39:26.518Z,8.00
2022-11-06T02:41:58.734Z,8.10
2022-11-06T02:47:30.118Z,8.00
2022-11-06T02:50:04.703Z,8.00
2022-11-06T02:52:38.051Z,8.10
2022-11-06T02:55:10.787Z,8.20
2022-11-06T02:57:44.848Z,8.20
2022-11-06T03:00:15.763Z,8.20
2022-11-06T03:02:48.664Z,8.20
2022-11-06T03:05:22.169Z,8.20
2022-11-06T03:07:56.021Z,8.20
2022-11-06T03:10:29.563Z,8.20
2022-11-06T03:13:07.354Z,8.20
2022-11-06T03:15:40.414Z,8.20
2022-11-06T03:18:14.745Z,8.20
2022-11-06T03:20:49.772Z,8.20
2022-11-06T03:23:26.021Z,8.20
2022-11-06T03:25:57.586Z,8.20
2022-11-06T03:28:33.460Z,8.20
2022-11-06T03:31:05.223Z,8.20
2022-11-06T03:33:38.840Z,8.20
2022-11-06T03:36:11.616Z,8.10
2022-11-06T03:38:43.121Z,8.10
2022-11-06T03:41:16.065Z,8.10
2022-11-06T03:43:48.880Z,8.20
2022-11-06T03:46:25.843Z,8.10
2022-11-06T03:48:57.555Z,8.10
2022-11-06T03:51:31.592Z,8.10
2022-11-06T03:54:03.857Z,8.00
2022-11-06T03:56:37.493Z,8.00
2022-11-06T03:59:09.828Z,8.00
2022-11-06T04:01:42.716Z,8.00
2022-11-06T04:04:16.281Z,7.90
2022-11-06T04:06:48.774Z,7.90
2022-11-06T04:09:37.014Z,7.90
2022-11-06T04:12:39.467Z,7.90
2022-11-06T04:15:13.944Z,8.00
2022-11-06T04:17:42.474Z,8.00
2022-11-06T04:20:35.178Z,8.10
2022-11-06T04:23:13.963Z,8.10
2022-11-06T04:26:14.622Z,8.10
2022-11-06T04:28:47.468Z,8.10
2022-11-06T04:31:26.611Z,8.10
2022-11-06T04:34:02.562Z,8.10
2022-11-06T04:36:40.675Z,8.10
2022-11-06T04:39:18.456Z,8.10
2022-11-06T04:41:54.841Z,8.20
2022-11-06T04:44:30.200Z,8.20
2022-11-06T04:47:02.267Z,8.20
2022-11-06T04:49:33.784Z,8.20
2022-11-06T04:52:05.764Z,8.20
2022-11-06T04:54:35.412Z,8.20
2022-11-06T04:57:04.768Z,8.10
2022-11-06T04:59:36.536Z,8.10
2022-11-06T05:02:06.910Z,8.10
2022-11-06T05:04:35.099Z,8.00
2022-11-06T05:07:03.156Z,8.10
2022-11-06T05:09:31.618Z,8.00
2022-11-06T05:11:59.737Z,7.90
2022-11-06T05:14:27.792Z,7.90
2022-11-06T05:16:55.927Z,7.90
2022-11-06T05:19:25.360Z,7.90
2022-11-06T05:22:10.600Z,7.80
2022-11-06T05:24:38.829Z,7.80
2022-11-06T05:27:06.859Z,7.80
2022-11-06T05:29:35.131Z,7.70
2022-11-06T05:32:03.962Z,7.70
2022-11-06T05:34:33.741Z,7.60
2022-11-06T05:37:01.784Z,7.60
2022-11-06T05:39:30.342Z,7.50
2022-11-06T05:41:58.367Z,7.50
2022-11-06T05:44:26.624Z,7.40
2022-11-06T05:46:54.722Z,7.40
2022-11-06T05:49:22.759Z,7.40
2022-11-06T05:51:52.517Z,7.30
2022-11-06T05:54:20.878Z,7.30
2022-11-06T05:56:48.916Z,7.40
2022-11-06T05:59:16.953Z,7.40
2022-11-06T06:01:45.089Z,7.40
2022-11-06T06:04:13.789Z,7.40
2022-11-06T06:06:42.317Z,7.40
2022-11-06T06:09:11.769Z,7.40
2022-11-06T06:11:39.821Z,7.40
2022-11-06T06:14:07.917Z,7.30
2022-11-06T06:16:36.300Z,7.30
2022-11-06T06:19:04.621Z,7.30
2022-11-06T06:21:32.726Z,7.30
2022-11-06T06:24:00.995Z,7.40
2022-11-06T06:26:30.809Z,7.40
2022-11-06T06:28:58.931Z,7.40
2022-11-06T06:31:27.457Z,7.50
2022-11-06T06:33:55.753Z,7.60
2022-11-06T06:36:24.193Z,7.60
2022-11-06T06:38:52.234Z,7.60
2022-11-06T06:41:20.270Z,7.70
2022-11-06T06:43:51.090Z,7.70
2022-11-06T06:46:19.597Z,7.70
2022-11-06T06:48:47.751Z,7.70
2022-11-06T06:51:19.703Z,7.80
2022-11-06T06:53:51.550Z,7.90
2022-11-06T06:56:19.752Z,8.00
2022-11-06T07:01:39.813Z,8.50
2022-11-06T07:04:08.008Z,8.50
2022-11-06T07:06:36.065Z,8.60
2022-11-06T07:09:04.304Z,8.60
2022-11-06T07:11:32.377Z,8.30
2022-11-06T07:14:01.041Z,8.70
2022-11-06T07:16:30.100Z,8.90
2022-11-06T07:19:00.431Z,9.30
2022-11-06T07:21:28.682Z,9.30
2022-11-06T07:23:56.775Z,9.60
2022-11-06T07:26:24.860Z,9.70
2022-11-06T07:28:52.972Z,10.50
2022-11-06T07:31:21.231Z,11.30
2022-11-06T07:33:49.260Z,10.70
2022-11-06T07:36:18.901Z,10.40
2022-11-06T07:38:47.161Z,11.30
2022-11-06T07:41:16.201Z,11.20
2022-11-06T07:43:44.787Z,10.60
2022-11-06T07:46:14.534Z,10.90
2022-11-06T07:48:42.608Z,11.30
2022-11-06T07:51:12.162Z,11.30
2022-11-06T07:53:42.340Z,10.80
2022-11-06T07:56:10.455Z,10.40
2022-11-06T07:58:39.221Z,9.70
2022-11-06T08:01:07.704Z,9.50
2022-11-06T08:03:35.748Z,9.30
2022-11-06T08:06:05.833Z,9.30
2022-11-06T08:08:34.646Z,9.50
2022-11-06T08:11:05.183Z,10.50
2022-11-06T08:13:35.360Z,12.50
2022-11-06T08:16:06.354Z,12.80
2022-11-06T08:18:35.308Z,13.00
2022-11-06T08:21:03.656Z,13.70
2022-11-06T08:23:31.786Z,13.40
2022-11-06T08:26:01.729Z,12.20
2022-11-06T08:28:31.544Z,11.20
2022-11-06T08:30:59.587Z,10.70
2022-11-06T08:33:27.621Z,10.40
2022-11-06T08:35:55.705Z,10.30
2022-11-06T08:38:23.917Z,10.20
2022-11-06T08:40:53.881Z,10.20
2022-11-06T08:43:24.165Z,10.10
2022-11-06T08:45:54.210Z,10.20
2022-11-06T08:48:22.314Z,10.20
2022-11-06T08:50:50.359Z,10.20
2022-11-06T08:53:19.070Z,10.30
2022-11-06T08:55:47.268Z,10.40
2022-11-06T08:58:15.394Z,10.40
2022-11-06T09:00:43.927Z,10.50
2022-11-06T09:03:15.677Z,10.60
2022-11-06T09:05:44.982Z,10.60
2022-11-06T09:08:14.110Z,10.60
2022-11-06T09:10:44.333Z,10.70
2022-11-06T09:13:13.383Z,10.70
2022-11-06T09:15:41.897Z,10.80
2022-11-06T09:18:11.773Z,10.90
2022-11-06T09:20:41.155Z,10.90
2022-11-06T09:23:10.802Z,11.10
2022-11-06T09:25:39.151Z,11.20
2022-11-06T09:28:07.192Z,11.40
2022-11-06T09:30:35.239Z,11.70
2022-11-06T09:33:07.058Z,12.10
2022-11-06T09:35:40.402Z,12.00
2022-11-06T09:38:12.274Z,11.90
2022-11-06T09:40:44.549Z,11.80
2022-11-06T09:43:58.133Z,11.80
2022-11-06T09:46:23.205Z,12.00
2022-11-06T09:48:56.512Z,12.10
2022-11-06T09:51:33.989Z,12.00
2022-11-06T09:54:07.685Z,12.10
2022-11-06T09:56:39.294Z,12.10
2022-11-06T09:59:13.213Z,12.30
2022-11-06T10:01:45.350Z,12.60
2022-11-06T10:04:26.824Z,12.80
2022-11-06T10:06:56.498Z,12.80
2022-11-06T10:09:24.612Z,12.80
2022-11-06T10:12:03.505Z,12.70
2022-11-06T10:14:54.452Z,12.80
2022-11-06T10:17:34.698Z,12.70
2022-11-06T10:20:11.834Z,12.40
2022-11-06T10:22:43.126Z,12.30
2022-11-06T10:25:21.010Z,12.20
2022-11-06T10:28:01.909Z,12.10
2022-11-06T10:30:37.741Z,12.00
2022-11-06T10:33:25.362Z,12.10
2022-11-06T10:36:00.759Z,12.00
2022-11-06T10:38:35.426Z,12.10
2022-11-06T10:41:03.760Z,12.10
2022-11-06T10:43:35.532Z,12.30
2022-11-06T10:46:19.531Z,12.70
2022-11-06T10:48:50.831Z,12.80
2022-11-06T10:51:34.725Z,12.60
2022-11-06T10:54:15.365Z,12.50
2022-11-06T10:56:55.843Z,12.40
2022-11-06T10:59:24.156Z,12.50
2022-11-06T11:01:52.404Z,12.50
2022-11-06T11:04:21.751Z,12.50
2022-11-06T11:06:49.785Z,12.50
2022-11-06T11:09:34.687Z,12.50
2022-11-06T11:12:02.852Z,12.60
2022-11-06T11:14:32.524Z,12.60
2022-11-06T11:17:02.200Z,12.80
2022-11-06T11:19:38.418Z,12.80
2022-11-06T11:22:18.930Z,12.70
2022-11-06T11:25:01.669Z,12.70
2022-11-06T11:27:31.440Z,12.60
2022-11-06T11:29:59.902Z,12.50
2022-11-06T11:32:31.370Z,12.60
2022-11-06T11:35:00.181Z,13.20
2022-11-06T11:37:30.800Z,13.40
2022-11-06T11:40:22.044Z,13.20
2022-11-06T11:42:50.401Z,13.20
2022-11-06T11:45:20.488Z,13.10
2022-11-06T11:47:51.317Z,13.20
2022-11-06T11:50:29.084Z,13.30
2022-11-06T11:53:07.101Z,13.40
2022-11-06T11:55:43.818Z,13.50
2022-11-06T11:58:22.808Z,13.40
2022-11-06T12:00:54.966Z,13.40
2022-11-06T12:03:24.765Z,13.20
2022-11-06T12:05:54.668Z,13.00
2022-11-06T12:08:26.126Z,13.40
2022-11-06T12:11:04.092Z,13.00
2022-11-06T12:13:32.125Z,12.70
2022-11-06T12:16:05.625Z,12.60
2022-11-06T12:18:36.658Z,12.50
2022-11-06T12:21:07.762Z,12.50
2022-11-06T12:23:41.866Z,12.60
2022-11-06T12:26:21.508Z,12.60
2022-11-06T12:28:52.570Z,12.70
2022-11-06T12:31:27.891Z,12.70
2022-11-06T12:34:06.785Z,12.70
2022-11-06T12:36:41.001Z,12.70
2022-11-06T12:39:15.612Z,12.70
2022-11-06T12:41:49.931Z,12.60
2022-11-06T12:44:18.458Z,12.40
2022-11-06T12:46:52.422Z,12.20
2022-11-06T12:49:48.254Z,12.10
2022-11-06T12:52:31.033Z,12.10
2022-11-06T12:55:16.987Z,12.20
2022-11-06T12:58:10.643Z,12.80
2022-11-06T13:00:55.202Z,12.80
2022-11-06T13:03:59.195Z,12.80
2022-11-06T13:06:36.508Z,12.60
2022-11-06T13:09:13.209Z,12.40
2022-11-06T13:11:49.473Z,12.40
2022-11-06T13:14:25.451Z,12.30
2022-11-06T13:17:01.072Z,12.10
2022-11-06T13:19:36.086Z,12.10
2022-11-06T13:22:16.960Z,12.00
2022-11-06T13:24:53.854Z,12.00
2022-11-06T13:27:29.001Z,12.00
2022-11-06T13:30:03.481Z,12.00
2022-11-06T13:32:35.414Z,12.00
2022-11-06T13:35:04.853Z,12.00
2022-11-06T13:37:39.701Z,12.10
2022-11-06T13:40:19.922Z,12.20
2022-11-06T13:42:52.440Z,12.20
2022-11-06T13:45:23.204Z,12.30
2022-11-06T13:48:15.359Z,12.40
2022-11-06T13:50:53.438Z,12.60
2022-11-06T13:53:29.004Z,12.60
2022-11-06T13:56:06.934Z,12.70
2022-11-06T13:59:23.601Z,12.70
2022-11-06T14:02:06.096Z,12.70
2022-11-06T14:04:55.073Z,12.70
2022-11-06T14:07:27.127Z,12.70
2022-11-06T14:09:57.529Z,12.60
2022-11-06T14:12:25.665Z,12.60
2022-11-06T14:15:14.811Z,12.60
2022-11-06T14:17:55.873Z,12.60
2022-11-06T14:20:31.699Z,12.50
2022-11-06T14:23:33.102Z,12.50
2022-11-06T14:26:05.325Z,12.50
2022-11-06T14:28:35.828Z,12.40
2022-11-06T14:31:14.029Z,12.40
2022-11-06T14:34:03.249Z,12.40
2022-11-06T14:36:36.548Z,12.30
2022-11-06T14:39:10.164Z,12.30
2022-11-06T14:41:58.040Z,12.20
2022-11-06T14:44:43.186Z,12.10
2022-11-06T14:47:27.674Z,11.90
2022-11-06T14:50:01.652Z,11.90
2022-11-06T14:52:40.064Z,11.90
2022-11-06T14:55:09.046Z,11.80
2022-11-06T14:57:46.938Z,11.60
2022-11-06T15:00:34.281Z,11.50
2022-11-06T15:03:04.705Z,11.50
2022-11-06T15:05:42.012Z,11.30
2022-11-06T15:08:10.844Z,11.40
2022-11-06T15:10:51.087Z,11.30
2022-11-06T15:13:33.955Z,11.20
2022-11-06T15:16:14.100Z,11.10
2022-11-06T15:18:45.967Z,11.00
2022-11-06T15:21:23.985Z,10.80
2022-11-06T15:24:03.948Z,10.70
2022-11-06T15:26:38.648Z,10.60
2022-11-06T15:29:19.026Z,10.40
2022-11-06T15:31:50.932Z,10.30
2022-11-06T15:34:24.779Z,10.30
2022-11-06T15:36:57.341Z,10.20
2022-11-06T15:39:34.484Z,10.10
2022-11-06T15:42:02.739Z,10.00
2022-11-06T15:44:30.846Z,9.90
2022-11-06T15:47:00.239Z,9.80
2022-11-06T15:49:28.316Z,9.80
2022-11-06T15:51:59.293Z,9.60
2022-11-06T15:54:35.965Z,9.60
2022-11-06T15:57:09.175Z,9.50
2022-11-06T15:59:37.251Z,9.50
2022-11-06T16:02:10.908Z,9.50
2022-11-06T16:04:39.237Z,9.50
2022-11-06T16:07:09.265Z,9.50
2022-11-06T16:09:37.841Z,9.50
2022-11-06T16:12:06.697Z,9.40
2022-11-06T16:14:39.874Z,9.50
2022-11-06T16:17:13.184Z,9.50
2022-11-06T16:19:41.630Z,9.50
2022-11-06T16:22:14.590Z,9.50
2022-11-06T16:24:46.305Z,9.50
2022-11-06T16:27:15.344Z,9.50
2022-11-06T16:29:48.893Z,9.50
2022-11-06T16:32:21.767Z,9.60
2022-11-06T16:34:51.685Z,9.60
2022-11-06T16:37:39.870Z,9.50
2022-11-06T16:40:49.773Z,9.50
2022-11-06T16:43:20.316Z,9.50
2022-11-06T16:45:54.496Z,9.60
2022-11-06T16:48:31.665Z,9.60
2022-11-06T16:51:01.399Z,9.60
2022-11-06T16:53:33.265Z,9.60
2022-11-06T16:56:02.832Z,9.60
2022-11-06T16:58:33.542Z,9.60
2022-11-06T17:01:04.121Z,9.60
2022-11-06T17:03:39.828Z,9.60
2022-11-06T17:06:19.354Z,9.70
2022-11-06T17:09:07.867Z,9.60
2022-11-06T17:11:38.636Z,9.70
2022-11-06T17:14:18.558Z,9.60
2022-11-06T17:16:49.590Z,9.50
2022-11-06T17:19:18.197Z,9.40
2022-11-06T17:21:46.900Z,9.40
2022-11-06T17:27:05.242Z,9.30
2022-11-06T17:29:34.191Z,9.30
2022-11-06T17:32:02.249Z,9.30
2022-11-06T17:34:30.303Z,9.30
2022-11-06T17:36:58.379Z,9.40
2022-11-06T17:39:27.806Z,9.40
2022-11-06T17:41:55.855Z,9.40
2022-11-06T17:44:23.829Z,9.50
2022-11-06T17:46:51.977Z,9.50
2022-11-06T17:49:19.927Z,9.60
2022-11-06T17:51:53.294Z,9.60
2022-11-06T17:54:23.506Z,9.70
2022-11-06T17:56:53.901Z,9.60
2022-11-06T17:59:23.776Z,9.70
2022-11-06T18:01:51.959Z,9.70
2022-11-06T18:04:21.102Z,9.70
2022-11-06T18:06:51.976Z,9.70
2022-11-06T18:09:21.049Z,9.80
2022-11-06T18:11:52.361Z,9.70
2022-11-06T18:14:21.468Z,9.80
2022-11-06T18:16:49.643Z,9.70
2022-11-06T18:19:19.947Z,9.70
2022-11-06T18:21:48.000Z,9.70
2022-11-06T18:24:16.230Z,9.70
2022-11-06T18:26:44.468Z,9.70
2022-11-06T18:29:15.476Z,9.70
2022-11-06T18:31:43.647Z,9.80
2022-11-06T18:34:43.330Z,9.80
2022-11-06T18:37:11.786Z,9.80
2022-11-06T18:39:40.760Z,9.80
2022-11-06T18:42:08.800Z,9.80
2022-11-06T18:44:41.225Z,9.90
2022-11-06T18:47:09.392Z,9.90
2022-11-06T18:49:37.496Z,9.90
2022-11-06T18:52:05.544Z,9.90
2022-11-06T18:54:33.887Z,9.90
2022-11-06T18:57:01.875Z,9.90
2022-11-06T18:59:30.519Z,9.90
2022-11-06T19:02:00.220Z,9.90
2022-11-06T19:04:28.514Z,9.90
2022-11-06T19:06:56.700Z,9.90
2022-11-06T19:09:24.751Z,9.90
2022-11-06T19:11:52.811Z,9.90
2022-11-06T19:14:21.061Z,9.90
2022-11-06T19:16:49.130Z,9.90
2022-11-06T19:19:25.252Z,9.90
2022-11-06T19:21:54.564Z,9.90
2022-11-06T19:24:22.755Z,9.90
2022-11-06T19:26:51.252Z,9.90
2022-11-06T19:29:19.452Z,9.90
2022-11-06T19:31:48.554Z,9.90
2022-11-06T19:34:20.298Z,10.00
2022-11-06T19:36:48.666Z,9.90
2022-11-06T19:39:17.253Z,10.00
2022-11-06T19:41:45.269Z,10.00
2022-11-06T19:44:13.701Z,10.00
2022-11-06T19:46:41.832Z,10.10
2022-11-06T19:49:11.119Z,10.10
2022-11-06T19:51:41.993Z,10.20
2022-11-06T19:54:11.076Z,10.30
2022-11-06T19:57:26.857Z,10.30
2022-11-06T19:59:27.357Z,10.40
2022-11-06T20:01:58.223Z,10.50
2022-11-06T20:04:36.855Z,10.50
2022-11-06T20:07:06.384Z,10.50
2022-11-06T20:09:34.620Z,10.50
2022-11-06T20:12:03.036Z,10.60
2022-11-06T20:14:31.204Z,10.70
2022-11-06T20:16:59.500Z,10.70
2022-11-06T20:19:27.512Z,10.80
2022-11-06T20:21:55.830Z,10.80
2022-11-06T20:24:25.169Z,10.90
2022-11-06T20:26:53.210Z,10.90
2022-11-06T20:29:21.261Z,11.00
2022-11-06T20:31:55.136Z,11.00
2022-11-06T20:34:23.184Z,11.00
2022-11-06T20:36:51.231Z,11.10
2022-11-06T20:39:19.278Z,11.10
2022-11-06T20:41:48.654Z,11.10
2022-11-06T20:44:16.868Z,11.10
2022-11-06T20:46:47.677Z,11.00
2022-11-06T20:49:16.131Z,11.10
2022-11-06T20:52:12.266Z,11.10
2022-11-06T20:54:32.283Z,11.10
2022-11-06T20:57:01.677Z,11.10
2022-11-06T20:59:30.973Z,11.20
2022-11-06T21:01:59.097Z,11.20
2022-11-06T21:04:27.401Z,11.20
2022-11-06T21:06:56.215Z,11.20
2022-11-06T21:09:24.974Z,11.30
2022-11-06T21:11:53.030Z,11.20
2022-11-06T21:14:23.128Z,11.20
2022-11-06T21:16:52.519Z,11.30
2022-11-06T21:19:20.754Z,11.30
2022-11-06T21:21:50.184Z,11.30
2022-11-06T21:24:18.240Z,11.30
2022-11-06T21:26:46.263Z,11.30
2022-11-06T21:29:14.264Z,11.20
2022-11-06T21:31:49.056Z,11.30
2022-11-06T21:34:18.120Z,11.30
2022-11-06T21:36:46.531Z,11.20
2022-11-06T21:39:17.156Z,11.20
2022-11-06T21:41:45.588Z,11.30
2022-11-06T21:44:15.224Z,11.30
2022-11-06T21:46:45.890Z,11.20
2022-11-06T21:49:14.634Z,11.10
2022-11-06T21:51:42.935Z,11.10
2022-11-06T21:54:29.600Z,11.00
2022-11-06T21:56:57.651Z,11.00
2022-11-06T21:59:27.270Z,11.00
2022-11-06T22:01:57.321Z,11.20
2022-11-06T22:04:25.606Z,11.10
2022-11-06T22:06:53.647Z,11.10
2022-11-06T22:09:25.313Z,11.10
2022-11-06T22:11:53.984Z,11.10
2022-11-06T22:14:22.031Z,11.10
2022-11-06T22:16:50.401Z,11.10
2022-11-06T22:19:19.753Z,11.00
2022-11-06T22:21:47.833Z,11.00
2022-11-06T22:24:16.269Z,10.90
2022-11-06T22:26:44.564Z,10.80
2022-11-06T22:29:16.247Z,10.80
2022-11-06T22:31:44.496Z,10.80
2022-11-06T22:34:13.200Z,10.90
2022-11-06T22:36:43.109Z,10.90
2022-11-06T22:39:12.692Z,10.90
2022-11-06T22:41:41.005Z,11.00
2022-11-06T22:44:09.613Z,11.00
2022-11-06T22:46:37.930Z,11.00
2022-11-06T22:49:06.804Z,11.00
2022-11-06T22:51:35.611Z,11.00
2022-11-06T22:54:05.585Z,11.00
2022-11-06T22:56:34.359Z,11.00
2022-11-06T22:59:04.702Z,11.00
2022-11-06T23:01:40.166Z,11.00
2022-11-06T23:04:15.731Z,11.00
2022-11-06T23:06:45.525Z,11.10
2022-11-06T23:09:15.732Z,11.20
2022-11-06T23:11:46.317Z,11.20
2022-11-06T23:14:14.668Z,11.30
2022-11-06T23:17:01.717Z,11.30
2022-11-06T23:19:32.323Z,11.30
2022-11-06T23:22:18.591Z,11.20
2022-11-06T23:24:48.090Z,11.30
2022-11-06T23:27:16.216Z,11.30
2022-11-06T23:29:44.221Z,11.20
2022-11-06T23:32:12.377Z,11.20
2022-11-06T23:34:51.782Z,11.20
2022-11-06T23:37:20.375Z,11.10
2022-11-06T23:39:49.841Z,11.00
2022-11-06T23:42:18.796Z,11.00
2022-11-06T23:45:04.875Z,11.00
2022-11-06T23:47:33.032Z,11.00
2022-11-06T23:50:01.023Z,11.00
2022-11-06T23:52:29.599Z,11.00
2022-11-06T23:54:59.487Z,11.00
2022-11-06T23:57:27.534Z,10.90
2022-11-06T23:59:55.765Z,11.00
